Time;durP1;ratioP1;P1;durP2;ratioP2;P2;SDS_P1;SDS_P2;PMS_P1;PMS_P2;Temp;Humidity;BMP_temperature;BMP_pressure;BME280_temperature;BME280_humidity;BME280_pressure;Samples;Min_cycle;Max_cycle;Signal;HPM_P1;HPM_P2
2022/07/28 00:02:05;;;;;;;21.63;12.55;;;;;;;;;;4969576;28;20054;-72
2022/07/28 00:04:35;;;;;;;21.65;14.10;;;;;;;;;;4970562;28;20046;-73
2022/07/28 00:07:04;;;;;;;25.75;13.07;;;;;;;;;;4970544;28;20070;-73
2022/07/28 00:09:34;;;;;;;28.67;11.63;;;;;;;;;;4968498;28;20055;-74
2022/07/28 00:12:04;;;;;;;20.20;12.68;;;;;;;;;;4970189;28;20055;-73
2022/07/28 00:14:34;;;;;;;21.80;12.43;;;;;;;;;;4969910;28;20505;-73
2022/07/28 00:17:05;;;;;;;22.23;12.35;;;;;;;;;;4970013;28;20525;-73
2022/07/28 00:19:34;;;;;;;15.13;12.15;;;;;;;;;;4970214;28;20054;-73
2022/07/28 00:22:06;;;;;;;15.43;11.13;;;;;;;;;;4969949;28;20055;-75
2022/07/28 00:24:36;;;;;;;19.15;12.23;;;;;;;;;;4969804;28;20510;-73
2022/07/28 00:27:06;;;;;;;30.88;13.63;;;;;;;;;;4969221;28;20055;-73
2022/07/28 00:29:36;;;;;;;18.42;13.05;;;;;;;;;;4969707;28;20055;-76
2022/07/28 00:32:19;;;;;;;23.98;13.02;;;;;;;;;;4969463;28;20054;-73
2022/07/28 00:34:50;;;;;;;21.42;11.85;;;;;;;;;;4968075;28;20426;-73
2022/07/28 00:37:22;;;;;;;21.17;13.35;;;;;;;;;;4969637;28;20402;-73
2022/07/28 00:39:54;;;;;;;22.52;13.48;;;;;;;;;;4969831;28;20051;-73
2022/07/28 00:42:25;;;;;;;24.20;13.43;;;;;;;;;;4969608;28;20482;-73
2022/07/28 00:44:54;;;;;;;21.13;12.75;;;;;;;;;;4969603;28;20054;-73
2022/07/28 00:47:25;;;;;;;20.48;12.85;;;;;;;;;;4969163;28;20429;-71
2022/07/28 00:50:05;;;;;;;19.60;13.15;;;;;;;;;;4968892;28;20046;-72
2022/07/28 00:52:36;;;;;;;22.90;13.65;;;;;;;;;;4968828;28;20069;-71
2022/07/28 00:55:06;;;;;;;25.48;11.52;;;;;;;;;;4967577;28;20599;-73
2022/07/28 00:57:36;;;;;;;20.35;12.30;;;;;;;;;;4967819;28;20050;-74
2022/07/28 01:00:07;;;;;;;15.93;12.73;;;;;;;;;;4967771;28;20518;-75
2022/07/28 01:02:37;;;;;;;18.52;12.55;;;;;;;;;;4968009;28;20525;-72
2022/07/28 01:05:08;;;;;;;23.92;12.65;;;;;;;;;;4968199;28;20722;-71
2022/07/28 01:08:01;;;;;;;17.65;12.35;;;;;;;;;;4951091;28;20111;-71
2022/07/28 01:10:44;;;;;;;21.58;13.40;;;;;;;;;;4968317;28;20062;-73
2022/07/28 01:13:37;;;;;;;18.45;13.85;;;;;;;;;;4968716;28;20039;-71
2022/07/28 01:16:08;;;;;;;22.38;12.88;;;;;;;;;;4969027;28;20054;-71
2022/07/28 01:19:31;;;;;;;21.33;12.50;;;;;;;;;;4951973;28;20047;-72
2022/07/28 01:22:05;;;;;;;16.10;11.57;;;;;;;;;;4908417;29;20059;-72
2022/07/28 01:25:08;;;;;;;21.73;14.07;;;;;;;;;;4967926;28;20058;-72
2022/07/28 01:28:09;;;;;;;17.80;11.63;;;;;;;;;;4969001;28;20055;-72
2022/07/28 01:30:46;;;;;;;17.58;12.05;;;;;;;;;;4967980;28;20070;-73
2022/07/28 01:33:20;;;;;;;17.77;13.25;;;;;;;;;;4967614;28;20055;-71
2022/07/28 01:36:01;;;;;;;17.80;11.68;;;;;;;;;;4968565;28;20047;-71
2022/07/28 01:38:33;;;;;;;17.20;12.20;;;;;;;;;;4968701;28;20050;-72
2022/07/28 01:41:08;;;;;;;13.65;9.38;;;;;;;;;;4968255;28;20053;-74
2022/07/28 01:43:43;;;;;;;19.85;13.00;;;;;;;;;;4968536;28;20526;-73
2022/07/28 01:46:15;;;;;;;20.40;12.40;;;;;;;;;;4967760;28;20039;-73
2022/07/28 01:48:46;;;;;;;17.90;12.45;;;;;;;;;;4968350;28;20046;-74
2022/07/28 01:51:17;;;;;;;18.27;11.85;;;;;;;;;;4968082;28;20411;-74
2022/07/28 01:53:50;;;;;;;22.17;12.02;;;;;;;;;;4968797;28;20059;-73
2022/07/28 01:56:21;;;;;;;19.05;12.02;;;;;;;;;;4968282;28;20047;-72
2022/07/28 01:58:54;;;;;;;22.67;13.10;;;;;;;;;;4951186;28;20058;-73
2022/07/28 02:01:25;;;;;;;19.38;12.65;;;;;;;;;;4968061;28;20359;-71
2022/07/28 02:03:59;;;;;;;16.35;11.60;;;;;;;;;;4968349;28;20089;-73
2022/07/28 02:06:32;;;;;;;24.23;15.52;;;;;;;;;;4968053;28;20505;-72
2022/07/28 02:09:05;;;;;;;20.83;14.52;;;;;;;;;;4967744;28;20053;-71
2022/07/28 02:11:38;;;;;;;23.05;14.88;;;;;;;;;;4967359;28;20059;-72
2022/07/28 02:14:21;;;;;;;23.10;14.00;;;;;;;;;;4968330;28;20090;-73
2022/07/28 02:16:58;;;;;;;23.77;16.08;;;;;;;;;;4968379;28;20054;-73
2022/07/28 02:19:30;;;;;;;22.48;14.02;;;;;;;;;;4968031;28;20043;-72
2022/07/28 02:22:02;;;;;;;30.27;15.60;;;;;;;;;;4950262;28;20529;-74
2022/07/28 02:24:33;;;;;;;24.45;14.35;;;;;;;;;;4967839;28;20051;-74
2022/07/28 02:27:33;;;;;;;21.00;14.35;;;;;;;;;;4968678;28;20055;-72
2022/07/28 02:30:17;;;;;;;23.65;15.43;;;;;;;;;;4963958;28;20070;-72
2022/07/28 02:32:54;;;;;;;22.65;15.38;;;;;;;;;;4968068;28;20050;-72
2022/07/28 02:35:31;;;;;;;26.05;15.38;;;;;;;;;;4967977;28;20055;-73
2022/07/28 02:38:13;;;;;;;27.50;16.17;;;;;;;;;;4968203;28;20053;-72
2022/07/28 02:40:46;;;;;;;22.38;15.05;;;;;;;;;;4967575;28;20494;-73
2022/07/28 02:43:23;;;;;;;25.17;15.35;;;;;;;;;;4967932;28;20399;-72
2022/07/28 02:46:18;;;;;;;26.52;14.85;;;;;;;;;;4968277;28;20046;-72
2022/07/28 02:48:53;;;;;;;23.80;14.43;;;;;;;;;;4950157;28;20421;-73
2022/07/28 02:51:27;;;;;;;21.92;13.95;;;;;;;;;;4967892;28;20402;-72
2022/07/28 02:53:58;;;;;;;22.35;13.73;;;;;;;;;;4967673;28;20043;-73
2022/07/28 02:56:29;;;;;;;23.33;15.52;;;;;;;;;;4968943;28;20047;-72
2022/07/28 02:59:00;;;;;;;22.10;14.98;;;;;;;;;;4971508;28;20051;-73
2022/07/28 03:01:30;;;;;;;27.33;15.90;;;;;;;;;;4971305;28;20049;-72
2022/07/28 03:04:01;;;;;;;21.48;13.75;;;;;;;;;;4952729;28;20051;-74
2022/07/28 03:06:31;;;;;;;19.10;14.13;;;;;;;;;;4971696;28;20543;-73
2022/07/28 03:09:01;;;;;;;19.70;15.00;;;;;;;;;;4971215;28;20061;-72
2022/07/28 03:11:34;;;;;;;28.15;15.45;;;;;;;;;;4971562;28;20050;-73
2022/07/28 03:14:05;;;;;;;26.35;14.40;;;;;;;;;;4971592;28;20054;-73
2022/07/28 03:16:34;;;;;;;20.02;13.90;;;;;;;;;;4970495;28;20348;-72
2022/07/28 03:19:04;;;;;;;15.60;12.35;;;;;;;;;;4971199;28;20426;-74
2022/07/28 03:21:34;;;;;;;20.00;14.52;;;;;;;;;;4971226;28;20494;-73
2022/07/28 03:24:04;;;;;;;23.35;13.98;;;;;;;;;;4970925;28;20059;-73
2022/07/28 03:26:48;;;;;;;22.63;14.07;;;;;;;;;;4970857;28;20341;-72
2022/07/28 03:29:19;;;;;;;22.42;15.13;;;;;;;;;;4970879;28;20049;-73
2022/07/28 03:31:53;;;;;;;21.38;15.32;;;;;;;;;;4969947;28;20055;-72
2022/07/28 03:34:23;;;;;;;23.02;15.07;;;;;;;;;;4970916;28;20046;-73
2022/07/28 03:37:00;;;;;;;24.00;15.15;;;;;;;;;;4971343;28;20058;-73
2022/07/28 03:39:35;;;;;;;20.65;14.43;;;;;;;;;;4970798;28;20058;-73
2022/07/28 03:42:06;;;;;;;20.95;15.27;;;;;;;;;;4970933;28;20062;-73
2022/07/28 03:44:38;;;;;;;21.40;14.27;;;;;;;;;;4970765;28;20051;-74
2022/07/28 03:47:08;;;;;;;23.63;15.15;;;;;;;;;;4970194;28;20054;-74
2022/07/28 03:49:38;;;;;;;20.92;13.85;;;;;;;;;;4970796;28;20054;-72
2022/07/28 03:52:08;;;;;;;20.92;14.93;;;;;;;;;;4970529;28;20047;-73
2022/07/28 03:54:38;;;;;;;19.70;14.43;;;;;;;;;;4970749;28;20053;-73
2022/07/28 03:57:07;;;;;;;;;;;;;;;;;;4970876;28;20054;-74
2022/07/28 03:59:37;;;;;;;20.15;13.35;;;;;;;;;;4970902;28;19933;-73
2022/07/28 04:02:07;;;;;;;24.15;13.63;;;;;;;;;;4970190;28;20479;-73
2022/07/28 04:04:37;;;;;;;19.73;12.20;;;;;;;;;;4970542;28;20054;-73
2022/07/28 04:07:08;;;;;;;20.70;12.68;;;;;;;;;;4970680;28;20054;-74
2022/07/28 04:09:38;;;;;;;;;;;;;;;;;;4970307;28;20043;-73
2022/07/28 04:12:08;;;;;;;18.17;13.00;;;;;;;;;;4969692;28;19926;-73
2022/07/28 04:14:37;;;;;;;23.25;11.90;;;;;;;;;;4970537;28;20043;-73
2022/07/28 04:17:08;;;;;;;22.33;13.65;;;;;;;;;;4970080;28;20061;-72
2022/07/28 04:19:38;;;;;;;21.30;13.25;;;;;;;;;;4951792;28;20054;-73
2022/07/28 04:22:07;;;;;;;;;;;;;;;;;;4970792;28;20038;-73
2022/07/28 04:24:37;;;;;;;21.75;12.43;;;;;;;;;;4970222;28;19925;-73
2022/07/28 04:27:07;;;;;;;;;;;;;;;;;;4970579;28;20046;-74
2022/07/28 04:29:37;;;;;;;21.95;11.77;;;;;;;;;;4969861;28;19922;-73
2022/07/28 04:32:07;;;;;;;23.63;14.30;;;;;;;;;;4970516;28;20056;-74
2022/07/28 04:34:36;;;;;;;;;;;;;;;;;;4970533;28;20047;-73
2022/07/28 04:37:07;;;;;;;19.60;13.77;;;;;;;;;;4969300;28;19930;-73
2022/07/28 04:39:37;;;;;;;17.88;12.30;;;;;;;;;;4969622;28;20050;-72
2022/07/28 04:42:07;;;;;;;20.50;13.20;;;;;;;;;;4969833;28;20054;-72
2022/07/28 04:44:41;;;;;;;19.48;13.65;;;;;;;;;;4969460;28;20429;-72
2022/07/28 04:47:15;;;;;;;16.73;12.77;;;;;;;;;;4969501;28;20051;-74
2022/07/28 04:49:45;;;;;;;17.92;11.45;;;;;;;;;;4969570;28;20403;-74
2022/07/28 04:52:15;;;;;;;16.52;11.82;;;;;;;;;;4969577;28;20061;-73
2022/07/28 04:54:45;;;;;;;22.98;13.32;;;;;;;;;;4969717;28;20043;-73
2022/07/28 04:57:14;;;;;;;;;;;;;;;;;;4970484;28;20050;-73
2022/07/28 04:59:44;;;;;;;18.70;11.82;;;;;;;;;;4969521;28;19933;-73
2022/07/28 05:02:15;;;;;;;18.90;13.50;;;;;;;;;;4968886;28;20491;-73
2022/07/28 05:04:45;;;;;;;;;;;;;;;;;;4952370;28;20054;-74
2022/07/28 05:07:15;;;;;;;14.85;11.93;;;;;;;;;;4969071;28;20333;-73
2022/07/28 05:09:45;;;;;;;20.00;13.50;;;;;;;;;;4951211;28;20055;-73
2022/07/28 05:12:14;;;;;;;20.60;12.52;;;;;;;;;;4968526;28;20050;-73
2022/07/28 05:14:44;;;;;;;;;;;;;;;;;;4969435;28;20043;-72
2022/07/28 05:17:13;;;;;;;20.25;12.80;;;;;;;;;;4968679;28;19926;-73
2022/07/28 05:19:43;;;;;;;23.33;12.32;;;;;;;;;;4968098;28;20066;-74
2022/07/28 05:22:12;;;;;;;;;;;;;;;;;;4969489;28;20051;-72
2022/07/28 05:24:42;;;;;;;16.45;11.48;;;;;;;;;;4969557;28;19929;-74
2022/07/28 05:27:12;;;;;;;17.92;12.95;;;;;;;;;;4968541;28;20430;-73
2022/07/28 05:29:41;;;;;;;;;;;;;;;;;;4969808;28;20418;-73
2022/07/28 05:32:16;;;;;;;21.60;12.45;;;;;;;;;;4968865;28;19937;-72
2022/07/28 05:34:46;;;;;;;18.88;12.55;;;;;;;;;;4968859;28;20410;-73
2022/07/28 05:37:15;;;;;;;;;;;;;;;;;;4968727;28;20058;-73
2022/07/28 05:39:45;;;;;;;17.20;12.82;;;;;;;;;;4968595;28;19979;-73
2022/07/28 05:42:14;;;;;;;20.40;12.77;;;;;;;;;;4968533;28;20043;-73
2022/07/28 05:44:46;;;;;;;16.73;12.15;;;;;;;;;;4968595;28;20062;-74
2022/07/28 05:47:17;;;;;;;19.27;12.80;;;;;;;;;;4968424;28;20042;-74
2022/07/28 05:49:46;;;;;;;20.88;13.55;;;;;;;;;;4969144;28;20050;-73
2022/07/28 05:52:16;;;;;;;19.15;13.57;;;;;;;;;;4968402;28;20054;-73
2022/07/28 05:54:45;;;;;;;;;;;;;;;;;;4969094;28;20039;-73
2022/07/28 05:57:16;;;;;;;19.13;12.10;;;;;;;;;;4968590;28;19930;-72
2022/07/28 05:59:46;;;;;;;19.80;11.32;;;;;;;;;;4950333;28;20395;-72
2022/07/28 06:02:16;;;;;;;25.30;13.73;;;;;;;;;;4967638;28;20059;-73
2022/07/28 06:04:46;;;;;;;18.73;12.02;;;;;;;;;;4968061;28;20053;-73
2022/07/28 06:07:15;;;;;;;;;;;;;;;;;;4968487;28;20042;-73
2022/07/28 06:09:45;;;;;;;18.63;11.82;;;;;;;;;;4968323;28;19922;-72
2022/07/28 06:12:15;;;;;;;16.17;10.98;;;;;;;;;;4968122;28;20047;-73
2022/07/28 06:14:45;;;;;;;17.17;11.77;;;;;;;;;;4968772;28;20039;-72
2022/07/28 06:17:14;;;;;;;;;;;;;;;;;;4969096;28;20050;-72
2022/07/28 06:19:44;;;;;;;16.88;11.55;;;;;;;;;;4967868;28;19926;-72
2022/07/28 06:22:14;;;;;;;15.13;11.10;;;;;;;;;;4967921;28;20047;-73
2022/07/28 06:24:44;;;;;;;16.73;10.95;;;;;;;;;;4967748;28;20062;-72
2022/07/28 06:27:13;;;;;;;;;;;;;;;;;;4968190;28;20049;-73
2022/07/28 06:29:43;;;;;;;17.92;12.48;;;;;;;;;;4967951;28;20412;-71
2022/07/28 06:32:14;;;;;;;;;;;;;;;;;;4970603;28;20426;-72
2022/07/28 06:34:43;;;;;;;16.73;10.98;;;;;;;;;;4971951;28;19933;-73
2022/07/28 06:37:13;;;;;;;;;;;;;;;;;;4972188;28;20399;-73
2022/07/28 06:39:42;;;;;;;20.15;11.07;;;;;;;;;;4971450;28;20289;-72
2022/07/28 06:42:12;;;;;;;17.25;11.13;;;;;;;;;;4972076;28;20046;-72
2022/07/28 06:44:42;;;;;;;;;;;;;;;;;;4972501;28;20050;-72
2022/07/28 06:47:26;;;;;;;16.40;11.50;;;;;;;;;;4954422;28;19941;-72
2022/07/28 06:49:56;;;;;;;19.95;13.15;;;;;;;;;;4971162;28;20058;-73
2022/07/28 06:52:25;;;;;;;;;;;;;;;;;;4971314;28;20055;-73
2022/07/28 06:54:55;;;;;;;18.73;10.90;;;;;;;;;;4971568;28;19926;-72
2022/07/28 06:57:27;;;;;;;14.88;10.85;;;;;;;;;;4971795;28;20047;-73
2022/07/28 07:00:04;;;;;;;15.30;10.65;;;;;;;;;;4971417;28;20051;-73
2022/07/28 07:02:41;;;;;;;17.75;10.43;;;;;;;;;;4971453;28;20051;-73
2022/07/28 07:05:12;;;;;;;19.88;11.25;;;;;;;;;;4971358;28;20054;-73
2022/07/28 07:07:43;;;;;;;17.42;12.77;;;;;;;;;;4971830;28;20054;-72
2022/07/28 07:10:12;;;;;;;20.02;13.80;;;;;;;;;;4972161;28;20061;-75
2022/07/28 07:12:42;;;;;;;16.70;11.30;;;;;;;;;;4970925;28;20350;-73
2022/07/28 07:15:12;;;;;;;19.13;12.70;;;;;;;;;;4971146;28;20055;-74
2022/07/28 07:17:43;;;;;;;17.75;11.63;;;;;;;;;;4970562;28;20059;-73
2022/07/28 07:20:13;;;;;;;15.77;10.10;;;;;;;;;;4971112;28;20050;-74
2022/07/28 07:22:46;;;;;;;21.95;10.73;;;;;;;;;;4971173;28;20043;-74
2022/07/28 07:25:17;;;;;;;13.32;9.70;;;;;;;;;;4971073;28;20045;-72
2022/07/28 07:27:48;;;;;;;15.90;9.05;;;;;;;;;;4953301;28;20062;-72
2022/07/28 07:30:17;;;;;;;12.32;8.93;;;;;;;;;;4971199;28;20050;-74
2022/07/28 07:32:49;;;;;;;13.65;9.55;;;;;;;;;;4970941;28;20514;-74
2022/07/28 07:35:18;;;;;;;10.10;7.65;;;;;;;;;;4971222;28;20058;-73
2022/07/28 07:37:48;;;;;;;15.95;9.52;;;;;;;;;;4970681;28;20046;-73
2022/07/28 07:40:18;;;;;;;12.90;9.95;;;;;;;;;;4953085;28;20047;-73
2022/07/28 07:42:47;;;;;;;;;;;;;;;;;;4970619;28;20054;-72
2022/07/28 07:45:17;;;;;;;14.10;9.88;;;;;;;;;;4970305;28;19948;-73
2022/07/28 07:47:47;;;;;;;13.98;9.10;;;;;;;;;;4970591;28;20501;-72
2022/07/28 07:50:16;;;;;;;;;;;;;;;;;;4971102;28;20442;-73
2022/07/28 07:52:48;;;;;;;11.55;9.00;;;;;;;;;;4952713;28;19933;-73
2022/07/28 07:55:18;;;;;;;19.60;11.38;;;;;;;;;;4970272;28;20592;-72
2022/07/28 07:57:48;;;;;;;;;;;;;;;;;;4971105;28;20089;-73
2022/07/28 08:00:18;;;;;;;15.65;9.40;;;;;;;;;;4970692;28;20294;-72
2022/07/28 08:02:59;;;;;;;17.10;9.77;;;;;;;;;;4970123;28;20054;-73
2022/07/28 08:05:29;;;;;;;11.05;8.82;;;;;;;;;;4969651;28;20577;-73
2022/07/28 08:08:04;;;;;;;14.85;10.13;;;;;;;;;;4970256;28;20047;-72
2022/07/28 08:10:36;;;;;;;17.15;10.98;;;;;;;;;;4953175;28;20058;-73
2022/07/28 08:13:06;;;;;;;19.45;11.27;;;;;;;;;;4970108;28;20487;-73
2022/07/28 08:15:36;;;;;;;15.63;11.32;;;;;;;;;;4970177;28;20047;-73
2022/07/28 08:18:08;;;;;;;17.38;11.93;;;;;;;;;;4970083;28;20050;-73
2022/07/28 08:20:38;;;;;;;21.15;11.55;;;;;;;;;;4970310;28;20047;-73
2022/07/28 08:23:09;;;;;;;15.55;10.68;;;;;;;;;;4969902;28;20418;-72
2022/07/28 08:25:39;;;;;;;15.10;10.13;;;;;;;;;;4970462;28;20050;-74
2022/07/28 08:28:09;;;;;;;21.90;12.07;;;;;;;;;;4969911;28;20054;-72
2022/07/28 08:30:39;;;;;;;18.00;12.02;;;;;;;;;;4970008;28;20046;-73
2022/07/28 08:33:08;;;;;;;;;;;;;;;;;;4952063;28;20254;-74
2022/07/28 08:35:38;;;;;;;13.25;8.75;;;;;;;;;;4969605;28;19922;-72
2022/07/28 08:38:10;;;;;;;15.25;9.80;;;;;;;;;;4969375;28;20058;-73
2022/07/28 08:40:44;;;;;;;12.65;9.65;;;;;;;;;;4969723;28;20069;-72
2022/07/28 08:43:37;;;;;;;21.23;9.13;;;;;;;;;;4969586;28;20054;-73
2022/07/28 08:46:07;;;;;;;14.85;10.63;;;;;;;;;;4969671;28;20039;-72
2022/07/28 08:48:39;;;;;;;14.75;9.65;;;;;;;;;;4951838;28;20058;-73
2022/07/28 08:51:10;;;;;;;18.27;10.80;;;;;;;;;;4969403;28;20113;-72
2022/07/28 08:53:42;;;;;;;14.90;11.02;;;;;;;;;;4952718;28;20074;-72
2022/07/28 08:56:14;;;;;;;15.38;10.35;;;;;;;;;;4969087;28;20521;-73
2022/07/28 08:58:45;;;;;;;19.02;10.15;;;;;;;;;;4969341;28;20039;-72
2022/07/28 09:01:15;;;;;;;;;;;;;;;;;;4969639;28;20074;-73
2022/07/28 09:03:45;;;;;;;16.35;9.50;;;;;;;;;;4968898;28;19948;-73
2022/07/28 09:06:17;;;;;;;22.38;9.82;;;;;;;;;;4969089;28;20046;-73
2022/07/28 09:08:48;;;;;;;13.40;9.88;;;;;;;;;;4969624;28;20051;-73
2022/07/28 09:11:17;;;;;;;14.85;9.25;;;;;;;;;;4969712;28;20050;-73
2022/07/28 09:13:47;;;;;;;;;;;;;;;;;;4969479;28;20050;-72
2022/07/28 09:16:21;;;;;;;13.73;8.55;;;;;;;;;;4968441;28;19930;-78
2022/07/28 09:18:51;;;;;;;15.57;9.93;;;;;;;;;;4969123;28;20057;-72
2022/07/28 09:21:21;;;;;;;;;;;;;;;;;;4969079;28;20607;-72
2022/07/28 09:23:51;;;;;;;13.57;8.57;;;;;;;;;;4969133;28;19936;-72
2022/07/28 09:26:20;;;;;;;14.48;9.05;;;;;;;;;;4969317;28;20062;-71
2022/07/28 09:28:51;;;;;;;;;;;;;;;;;;4969209;28;20051;-72
2022/07/28 09:31:23;;;;;;;13.45;7.80;;;;;;;;;;4968867;28;19930;-72
2022/07/28 09:34:13;;;;;;;11.00;7.68;;;;;;;;;;4968963;28;20058;-72
2022/07/28 09:36:44;;;;;;;11.27;7.55;;;;;;;;;;4968992;28;20329;-73
2022/07/28 09:39:32;;;;;;;12.15;7.85;;;;;;;;;;4968347;28;20046;-73
2022/07/28 09:42:02;;;;;;;14.68;8.45;;;;;;;;;;4968249;28;20059;-72
2022/07/28 09:44:32;;;;;;;14.98;7.65;;;;;;;;;;4967845;28;20051;-74
2022/07/28 09:47:19;;;;;;;;;;;;;;;;;;4968254;28;20078;-73
2022/07/28 09:49:50;;;;;;;14.18;7.32;;;;;;;;;;4968706;28;20396;-75
2022/07/28 09:52:31;;;;;;;14.57;6.75;;;;;;;;;;4968537;28;20047;-73
2022/07/28 09:55:01;;;;;;;12.70;7.38;;;;;;;;;;4968699;28;20552;-76
2022/07/28 09:57:33;;;;;;;10.60;7.22;;;;;;;;;;4968243;28;20054;-72
2022/07/28 10:00:13;;;;;;;18.77;7.57;;;;;;;;;;4967802;28;20042;-72
2022/07/28 10:02:49;;;;;;;15.48;7.72;;;;;;;;;;4968504;28;20055;-72
2022/07/28 10:05:19;;;;;;;;;;;;;;;;;;4968536;28;20050;-74
2022/07/28 10:07:49;;;;;;;13.18;6.88;;;;;;;;;;4968317;28;20282;-73
2022/07/28 10:10:22;;;;;;;13.13;7.70;;;;;;;;;;4967980;28;20047;-72
2022/07/28 10:13:05;;;;;;;11.80;6.63;;;;;;;;;;4968169;28;20051;-73
2022/07/28 10:18:23;;;;;;;10.63;7.03;;;;;;;;;;4967903;28;20046;-72
2022/07/28 10:20:54;;;;;;;15.57;8.77;;;;;;;;;;4967494;28;20050;-75
2022/07/28 10:23:25;;;;;;;10.70;7.70;;;;;;;;;;4968250;28;20050;-72
2022/07/28 10:25:57;;;;;;;11.20;7.57;;;;;;;;;;4967849;28;20066;-73
2022/07/28 10:28:30;;;;;;;13.43;8.38;;;;;;;;;;4968183;28;20054;-79
2022/07/28 10:31:01;;;;;;;12.85;7.95;;;;;;;;;;4969014;28;20046;-72
2022/07/28 10:33:38;;;;;;;12.10;6.63;;;;;;;;;;4967819;28;20054;-73
2022/07/28 10:36:09;;;;;;;18.55;7.57;;;;;;;;;;4967955;28;20049;-72
2022/07/28 10:38:40;;;;;;;11.07;7.97;;;;;;;;;;4967506;28;20055;-72
2022/07/28 10:41:13;;;;;;;15.05;7.53;;;;;;;;;;4967126;28;20055;-73
2022/07/28 10:43:44;;;;;;;17.10;7.32;;;;;;;;;;4967497;28;20432;-77
2022/07/28 10:46:17;;;;;;;14.05;7.13;;;;;;;;;;4965929;28;20423;-72
2022/07/28 10:48:47;;;;;;;13.93;6.80;;;;;;;;;;4949797;28;20058;-72
2022/07/28 10:51:19;;;;;;;13.23;7.47;;;;;;;;;;4950515;28;20065;-72
2022/07/28 10:54:17;;;;;;;12.77;6.82;;;;;;;;;;4967771;28;20043;-72
2022/07/28 10:56:57;;;;;;;11.77;7.57;;;;;;;;;;4963749;28;20063;-72
2022/07/28 11:00:24;;;;;;;17.75;7.18;;;;;;;;;;4967734;28;20051;-73
2022/07/28 11:03:00;;;;;;;11.88;7.28;;;;;;;;;;4938244;29;20059;-72
2022/07/28 11:05:42;;;;;;;10.10;5.72;;;;;;;;;;4948454;29;20051;-72
2022/07/28 11:08:17;;;;;;;10.48;6.20;;;;;;;;;;4948217;29;20058;-72
2022/07/28 11:10:49;;;;;;;13.20;6.75;;;;;;;;;;4948182;29;20054;-73
2022/07/28 11:13:28;;;;;;;19.17;6.13;;;;;;;;;;4948105;29;20047;-72
2022/07/28 11:16:13;;;;;;;10.07;7.10;;;;;;;;;;4948246;29;20048;-72
2022/07/28 11:19:06;;;;;;;12.02;6.40;;;;;;;;;;4950628;28;20050;-71
2022/07/28 11:25:01;;;;;;;7.40;5.25;;;;;;;;;;4951830;29;20410;-75
2022/07/28 11:27:49;;;;;;;11.85;5.82;;;;;;;;;;4951558;29;20043;-72
2022/07/28 11:30:35;;;;;;;9.77;5.35;;;;;;;;;;4933966;29;20055;-72
2022/07/28 11:33:11;;;;;;;8.00;5.63;;;;;;;;;;4951257;29;20125;-73
2022/07/28 11:35:41;;;;;;;13.70;5.72;;;;;;;;;;4951297;29;20051;-73
2022/07/28 11:38:13;;;;;;;21.25;5.78;;;;;;;;;;4951270;29;20056;-71
2022/07/28 11:40:51;;;;;;;15.38;5.68;;;;;;;;;;4950373;29;20059;-73
2022/07/28 11:43:31;;;;;;;14.00;4.80;;;;;;;;;;4950637;29;20501;-72
2022/07/28 11:46:07;;;;;;;10.02;6.03;;;;;;;;;;4951350;29;20055;-72
2022/07/28 11:48:43;;;;;;;14.30;5.68;;;;;;;;;;4951935;29;20058;-73
2022/07/28 11:51:14;;;;;;;10.15;4.53;;;;;;;;;;4951272;29;20058;-73
2022/07/28 11:53:51;;;;;;;10.85;4.50;;;;;;;;;;4934871;29;20051;-72
2022/07/28 11:56:23;;;;;;;7.60;4.55;;;;;;;;;;4950835;29;20051;-72
2022/07/28 11:59:00;;;;;;;10.00;5.32;;;;;;;;;;4934378;29;20064;-73
2022/07/28 12:01:32;;;;;;;10.18;4.60;;;;;;;;;;4951191;29;20055;-71
2022/07/28 12:04:10;;;;;;;10.82;5.72;;;;;;;;;;4950751;29;20059;-73
2022/07/28 12:06:42;;;;;;;12.48;5.00;;;;;;;;;;4951211;29;20400;-73
2022/07/28 12:09:19;;;;;;;13.52;5.68;;;;;;;;;;4950701;29;20051;-73
2022/07/28 12:11:57;;;;;;;10.25;5.40;;;;;;;;;;4951674;29;20051;-79
2022/07/28 12:14:30;;;;;;;13.10;4.63;;;;;;;;;;4951347;29;20039;-74
2022/07/28 12:17:07;;;;;;;9.90;5.85;;;;;;;;;;4950746;29;20043;-74
2022/07/28 12:19:36;;;;;;;10.10;5.13;;;;;;;;;;4950524;29;20048;-72
2022/07/28 12:22:11;;;;;;;14.45;5.40;;;;;;;;;;4950378;28;20047;-73
2022/07/28 12:24:43;;;;;;;10.40;5.00;;;;;;;;;;4950419;29;20047;-72
2022/07/28 12:27:14;;;;;;;15.05;5.80;;;;;;;;;;4951000;29;20046;-72
2022/07/28 12:29:56;;;;;;;13.07;5.18;;;;;;;;;;4933635;29;20058;-72
2022/07/28 12:32:36;;;;;;;8.43;5.05;;;;;;;;;;4950483;29;20487;-73
2022/07/28 12:35:06;;;;;;;11.73;6.05;;;;;;;;;;4950579;29;20047;-73
2022/07/28 12:37:36;;;;;;;15.05;5.78;;;;;;;;;;4950681;29;20043;-76
2022/07/28 12:40:09;;;;;;;11.80;5.57;;;;;;;;;;4951647;29;20047;-72
2022/07/28 12:42:39;;;;;;;13.15;5.43;;;;;;;;;;4950020;29;20043;-73
2022/07/28 12:45:10;;;;;;;12.18;5.15;;;;;;;;;;4933244;29;20054;-72
2022/07/28 12:47:41;;;;;;;12.25;6.30;;;;;;;;;;4950305;29;20526;-73
2022/07/28 12:50:18;;;;;;;8.63;5.28;;;;;;;;;;4950575;29;20055;-73
2022/07/28 12:53:04;;;;;;;11.13;5.18;;;;;;;;;;4932638;29;20051;-72
2022/07/28 12:55:36;;;;;;;15.18;5.63;;;;;;;;;;4950139;29;20063;-74
2022/07/28 12:58:07;;;;;;;9.50;5.38;;;;;;;;;;4950268;29;20047;-73
2022/07/28 13:00:36;;;;;;;9.35;5.15;;;;;;;;;;4949884;29;20069;-73
2022/07/28 13:03:28;;;;;;;10.93;5.65;;;;;;;;;;4949599;29;20051;-72
2022/07/28 13:06:09;;;;;;;12.50;5.07;;;;;;;;;;4950457;29;20125;-72
2022/07/28 13:08:46;;;;;;;21.52;6.95;;;;;;;;;;4949550;29;20090;-74
2022/07/28 13:11:28;;;;;;;8.50;5.05;;;;;;;;;;4949744;29;20047;-74
2022/07/28 13:14:15;;;;;;;13.02;5.30;;;;;;;;;;4949479;29;20058;-72
2022/07/28 13:16:57;;;;;;;11.75;5.47;;;;;;;;;;4949537;29;20047;-74
2022/07/28 13:19:27;;;;;;;11.93;4.40;;;;;;;;;;4949110;29;20411;-73
2022/07/28 13:21:58;;;;;;;9.93;4.97;;;;;;;;;;4949592;28;20055;-71
2022/07/28 13:24:36;;;;;;;8.50;4.97;;;;;;;;;;4949476;29;20062;-72
2022/07/28 13:27:07;;;;;;;7.93;4.30;;;;;;;;;;4948776;29;20419;-78
2022/07/28 13:29:37;;;;;;;11.80;5.65;;;;;;;;;;4949618;29;20043;-73
2022/07/28 13:32:07;;;;;;;11.68;5.40;;;;;;;;;;4949773;28;20047;-74
2022/07/28 13:34:38;;;;;;;14.57;5.55;;;;;;;;;;4949358;29;20078;-74
2022/07/28 13:37:09;;;;;;;10.18;5.28;;;;;;;;;;4949282;29;20047;-73
2022/07/28 13:39:38;;;;;;;12.55;5.68;;;;;;;;;;4949346;28;20074;-73
2022/07/28 13:42:09;;;;;;;12.25;5.50;;;;;;;;;;4947311;29;20051;-73
2022/07/28 13:44:41;;;;;;;20.33;6.93;;;;;;;;;;4949120;29;20070;-73
2022/07/28 13:47:10;;;;;;;15.60;5.72;;;;;;;;;;4949128;28;20059;-72
2022/07/28 13:49:45;;;;;;;13.55;5.10;;;;;;;;;;4949032;29;20397;-74
2022/07/28 13:52:16;;;;;;;15.32;5.78;;;;;;;;;;4949004;29;20051;-73
2022/07/28 13:55:02;;;;;;;11.23;6.05;;;;;;;;;;4949165;29;20047;-75
2022/07/28 13:57:33;;;;;;;8.63;5.28;;;;;;;;;;4948736;29;20043;-73
2022/07/28 14:00:05;;;;;;;13.80;6.10;;;;;;;;;;4949737;29;20055;-74
2022/07/28 14:02:36;;;;;;;19.73;6.68;;;;;;;;;;4949184;28;20063;-72
2022/07/28 14:05:13;;;;;;;20.10;6.63;;;;;;;;;;4931859;29;20058;-77
2022/07/28 14:07:43;;;;;;;8.63;5.53;;;;;;;;;;4948644;29;20050;-74
2022/07/28 14:10:17;;;;;;;16.42;6.15;;;;;;;;;;4949019;29;20070;-72
2022/07/28 14:12:47;;;;;;;15.63;7.45;;;;;;;;;;4949269;29;20050;-72
2022/07/28 14:15:19;;;;;;;12.75;6.15;;;;;;;;;;4948576;29;20133;-72
2022/07/28 14:17:49;;;;;;;11.55;7.45;;;;;;;;;;4948661;29;20055;-72
2022/07/28 14:20:19;;;;;;;12.98;6.28;;;;;;;;;;4948491;29;20039;-72
2022/07/28 14:22:51;;;;;;;13.80;6.00;;;;;;;;;;4948873;29;20047;-75
2022/07/28 14:25:21;;;;;;;17.80;6.15;;;;;;;;;;4949243;29;20051;-77
2022/07/28 14:27:52;;;;;;;12.82;6.30;;;;;;;;;;4948751;29;20059;-72
2022/07/28 14:30:24;;;;;;;11.05;6.65;;;;;;;;;;4931208;29;20055;-73
2022/07/28 14:32:56;;;;;;;18.58;5.63;;;;;;;;;;4948288;29;21188;-72
2022/07/28 14:35:26;;;;;;;17.00;6.53;;;;;;;;;;4948717;29;20062;-73
2022/07/28 14:37:56;;;;;;;19.98;6.85;;;;;;;;;;4948732;29;20043;-76
2022/07/28 14:40:46;;;;;;;15.43;6.22;;;;;;;;;;4948719;29;20047;-73
2022/07/28 14:43:16;;;;;;;20.45;6.07;;;;;;;;;;4948572;29;20047;-77
2022/07/28 14:45:46;;;;;;;15.75;6.30;;;;;;;;;;4948650;28;20047;-73
2022/07/28 14:48:36;;;;;;;17.52;6.57;;;;;;;;;;4948774;29;20047;-73
2022/07/28 14:51:06;;;;;;;15.27;5.88;;;;;;;;;;4949154;29;20051;-73
2022/07/28 14:53:36;;;;;;;18.00;5.47;;;;;;;;;;4951029;29;20058;-75
2022/07/28 14:56:18;;;;;;;20.58;6.80;;;;;;;;;;4952599;29;20051;-77
2022/07/28 14:58:49;;;;;;;19.40;11.77;;;;;;;;;;4951841;29;20050;-76
2022/07/28 15:01:19;;;;;;;13.68;5.78;;;;;;;;;;4951968;29;20050;-73
2022/07/28 15:03:49;;;;;;;11.70;5.68;;;;;;;;;;4951755;29;20063;-74
2022/07/28 15:06:18;;;;;;;8.85;5.30;;;;;;;;;;4951974;29;20047;-76
2022/07/28 15:08:48;;;;;;;23.10;11.10;;;;;;;;;;4952113;29;20506;-73
2022/07/28 15:11:18;;;;;;;12.27;4.57;;;;;;;;;;4935310;29;20058;-73
2022/07/28 15:13:48;;;;;;;11.38;4.20;;;;;;;;;;4935467;29;20062;-75
2022/07/28 15:16:18;;;;;;;9.13;4.43;;;;;;;;;;4952379;29;20525;-74